Fort Worth Meacham International Airport


Codes: KFTW/FTW
Name: Fort Worth Meacham International Airport
City: Fort Worth
Country: United States
Elevation: 710 ft.
Wikipedia:

Photos at Fort Worth Meacham International Airport


   Photos courtesy of SpottingLog. You can add your own sightings and photos by signing up for a free trial today.



No photos found.

Weather at Fort Worth Meacham International Airport


Time (UTC)DescriptionTempratureWindCloud coverageVisibilityPressureHumidity
17-Jun-2024 06:00Clear Sky28°C9 mph, SE0%10000m1011hPa65%
17-Jun-2024 09:00Light Rain27°C11 mph, S1%10000m1010hPa70%
17-Jun-2024 12:00Clear Sky25°C11 mph, S1%10000m1010hPa81%
17-Jun-2024 15:00Scattered Clouds27°C16 mph, S44%10000m1010hPa76%
17-Jun-2024 18:00Light Rain31°C16 mph, S56%10000m1009hPa57%
17-Jun-2024 21:00Broken Clouds32°C18 mph, SE53%10000m1008hPa51%
18-Jun-2024 00:00Broken Clouds30°C16 mph, SE78%10000m1007hPa63%
18-Jun-2024 03:00Overcast Clouds28°C18 mph, SE89%10000m1009hPa66%
18-Jun-2024 06:00Scattered Clouds26°C18 mph, S46%10000m1010hPa71%
18-Jun-2024 09:00Clear Sky24°C18 mph, S0%10000m1009hPa80%
18-Jun-2024 12:00Clear Sky23°C13 mph, S1%10000m1010hPa84%
18-Jun-2024 15:00Broken Clouds27°C16 mph, S57%10000m1012hPa69%
18-Jun-2024 18:00Light Rain31°C16 mph, SE65%10000m1011hPa55%
18-Jun-2024 21:00Broken Clouds31°C13 mph, SE68%10000m1010hPa54%
19-Jun-2024 00:00Broken Clouds29°C16 mph, SE76%10000m1010hPa60%
19-Jun-2024 03:00Few Clouds26°C18 mph, SE14%10000m1012hPa73%
19-Jun-2024 06:00Clear Sky23°C13 mph, SE10%10000m1013hPa78%
19-Jun-2024 09:00Overcast Clouds22°C9 mph, SE100%10000m1013hPa84%
19-Jun-2024 12:00Overcast Clouds23°C9 mph, E100%10000m1014hPa83%
19-Jun-2024 15:00Overcast Clouds25°C11 mph, E100%10000m1015hPa74%
19-Jun-2024 18:00Light Rain27°C16 mph, E100%10000m1016hPa67%
19-Jun-2024 21:00Light Rain24°C13 mph, E100%10000m1016hPa79%
20-Jun-2024 00:00Light Rain22°C11 mph, NE100%8415m1016hPa93%
20-Jun-2024 03:00Light Rain21°C11 mph, NE100%10000m1018hPa95%
20-Jun-2024 06:00Moderate Rain22°C11 mph, E100%8531m1018hPa96%
20-Jun-2024 09:00Moderate Rain22°C11 mph, NE100%10000m1017hPa96%
20-Jun-2024 12:00Light Rain22°C11 mph, NE100%10000m1018hPa96%
20-Jun-2024 15:00Light Rain23°C11 mph, NE100%10000m1019hPa92%
20-Jun-2024 18:00Overcast Clouds26°C11 mph, NE100%10000m1019hPa78%
20-Jun-2024 21:00Light Rain29°C16 mph, E100%10000m1017hPa62%
21-Jun-2024 00:00Light Rain28°C11 mph, E100%10000m1017hPa67%
21-Jun-2024 03:00Light Rain25°C7 mph, NE100%10000m1018hPa78%
21-Jun-2024 06:00Overcast Clouds24°C4 mph, NE100%10000m1018hPa75%
21-Jun-2024 09:00Overcast Clouds23°C4 mph, SE100%10000m1018hPa86%
21-Jun-2024 12:00Overcast Clouds23°C4 mph, SE100%10000m1019hPa88%
21-Jun-2024 15:00Overcast Clouds28°C9 mph, SE99%10000m1019hPa64%
21-Jun-2024 18:00Overcast Clouds31°C13 mph, SE100%10000m1018hPa49%
21-Jun-2024 21:00Broken Clouds32°C13 mph, SE71%10000m1017hPa46%
22-Jun-2024 00:00Broken Clouds29°C9 mph, SE76%10000m1016hPa57%
22-Jun-2024 03:00Broken Clouds27°C7 mph, SE74%10000m1017hPa64%